Airfield :
LOGIN :

Register | Disclaimer

   EN    FR    IT 

 










Legend :    VFR   Marginal VFR   IFR   Intensive IFR   Very Intensive IFR
Visi :
Ceiling :
>= 8 km
>= 3000ft
5 to 8 km
1000 to 3000 ft
1500m to 5 km
500 to 1000 ft
800 to 1500m
200 to 500 ft
< 800m
< 200 ft
Symbols :   Thunderstorms  Fog  Heavy snow  Heavy precipitations  Wind > 20 kt
SIGMETs :     Misc.  Thunderstorms  Icing  Turbulence  Mountain Waves  Volcanic Ashes






- Airport Elevation : 1548 ft


LKNA - Náměšť Air Base

CURRENT METAR :
  • 211314Z 14014KT 2500 BR OVC002 08/07 Q1009 RMK AMB

EXPIRED METARs :
  • 211200Z 12009KT 0300 R13/0300 -RA FG VV002 08/07 Q1009 NOSIG RMK RED RED
  • 211100Z 11009KT 0100 R13/0300D FG VV001 08/07 Q1010 NOSIG

TAF TAF LKNA
Valid from the 21 at 12:00 until the 22 at 12:00 UTC


211100Z 2112/2212 12010KT 0200 FG VV001
BECMG 2112/2114 1200 BR OVC003
PROB40
TEMPO 2113/2115 3000 BR OVC010
BECMG 2116/2118 12014KT 6000 OVC005
TEMPO 2122/2212 12012G24KT



MET'MAP, your aeronautical weather chart ! - Copyright ORBIFLY December 2007 - Disclaimer

ORBIFLY MET'MAP TEAM :

Programming & Development : Alexandra Zaïnal
Concept & Development : Baudouin d'Aumeries
Co-Development & Prog : Marc-Olivier Méhu
Technical & hardware support : Manuel Goepfert

Contact : metmap@orbifly.com




SOURCES & CREDITS :

   NOAA